sensor_id;sensor_type;location;lat;lon;timestamp;temperature;humidity
21031;DHT22;61072;47.808;7.636;2022-09-03T00:01:26;17.40;99.90
21031;DHT22;61072;47.808;7.636;2022-09-03T00:04:02;17.40;99.90
21031;DHT22;61072;47.808;7.636;2022-09-03T00:06:35;17.50;99.90
21031;DHT22;61072;47.808;7.636;2022-09-03T00:09:14;17.50;99.90
21031;DHT22;61072;47.808;7.636;2022-09-03T00:11:47;17.40;99.90
21031;DHT22;61072;47.808;7.636;2022-09-03T00:14:27;17.40;99.90
21031;DHT22;61072;47.808;7.636;2022-09-03T00:17:08;17.40;99.90
21031;DHT22;61072;47.808;7.636;2022-09-03T00:19:50;17.40;99.90
21031;DHT22;61072;47.808;7.636;2022-09-03T00:22:32;17.50;99.90
21031;DHT22;61072;47.808;7.636;2022-09-03T00:25:03;17.50;99.90
21031;DHT22;61072;47.808;7.636;2022-09-03T00:27:35;17.50;99.90
21031;DHT22;61072;47.808;7.636;2022-09-03T00:30:07;17.50;99.90
21031;DHT22;61072;47.808;7.636;2022-09-03T00:32:44;17.50;99.90
21031;DHT22;61072;47.808;7.636;2022-09-03T00:35:28;17.60;99.90
21031;DHT22;61072;47.808;7.636;2022-09-03T00:37:59;17.60;99.90
21031;DHT22;61072;47.808;7.636;2022-09-03T00:48:18;17.70;99.90
21031;DHT22;61072;47.808;7.636;2022-09-03T00:51:19;17.70;99.90
21031;DHT22;61072;47.808;7.636;2022-09-03T00:59:40;17.70;99.90
21031;DHT22;61072;47.808;7.636;2022-09-03T01:02:26;17.80;99.90
21031;DHT22;61072;47.808;7.636;2022-09-03T01:05:09;17.80;99.90
21031;DHT22;61072;47.808;7.636;2022-09-03T01:07:48;17.80;99.90
21031;DHT22;61072;47.808;7.636;2022-09-03T01:10:35;17.90;99.90
21031;DHT22;61072;47.808;7.636;2022-09-03T01:13:13;17.80;99.90
21031;DHT22;61072;47.808;7.636;2022-09-03T01:15:50;17.90;99.90
21031;DHT22;61072;47.808;7.636;2022-09-03T01:32:10;17.90;99.90
21031;DHT22;61072;47.808;7.636;2022-09-03T01:34:52;17.90;99.90
21031;DHT22;61072;47.808;7.636;2022-09-03T01:37:39;17.90;99.90
21031;DHT22;61072;47.808;7.636;2022-09-03T01:40:20;17.90;99.90
21031;DHT22;61072;47.808;7.636;2022-09-03T01:46:12;17.90;99.90
21031;DHT22;61072;47.808;7.636;2022-09-03T01:51:23;17.80;99.90
21031;DHT22;61072;47.808;7.636;2022-09-03T01:54:18;17.80;99.90
21031;DHT22;61072;47.808;7.636;2022-09-03T02:02:29;17.80;99.90
21031;DHT22;61072;47.808;7.636;2022-09-03T02:05:12;17.80;99.90
21031;DHT22;61072;47.808;7.636;2022-09-03T02:07:44;17.80;99.90
21031;DHT22;61072;47.808;7.636;2022-09-03T02:10:21;17.80;99.90
21031;DHT22;61072;47.808;7.636;2022-09-03T02:12:54;17.90;99.90
21031;DHT22;61072;47.808;7.636;2022-09-03T02:15:24;17.90;99.90
21031;DHT22;61072;47.808;7.636;2022-09-03T02:17:53;17.90;99.90
21031;DHT22;61072;47.808;7.636;2022-09-03T02:20:24;17.90;99.90
21031;DHT22;61072;47.808;7.636;2022-09-03T02:22:52;17.90;99.90
21031;DHT22;61072;47.808;7.636;2022-09-03T02:25:22;17.90;99.90
21031;DHT22;61072;47.808;7.636;2022-09-03T02:27:50;17.90;99.90
21031;DHT22;61072;47.808;7.636;2022-09-03T02:30:17;17.80;99.90
21031;DHT22;61072;47.808;7.636;2022-09-03T02:32:44;17.80;99.90
21031;DHT22;61072;47.808;7.636;2022-09-03T02:35:11;17.80;99.90
21031;DHT22;61072;47.808;7.636;2022-09-03T02:37:38;17.90;99.90
21031;DHT22;61072;47.808;7.636;2022-09-03T02:40:06;17.90;99.90
21031;DHT22;61072;47.808;7.636;2022-09-03T02:42:35;17.90;99.90
21031;DHT22;61072;47.808;7.636;2022-09-03T02:45:30;17.90;99.90
21031;DHT22;61072;47.808;7.636;2022-09-03T02:47:59;18.00;99.90
21031;DHT22;61072;47.808;7.636;2022-09-03T02:50:26;18.00;99.90
21031;DHT22;61072;47.808;7.636;2022-09-03T02:52:53;18.00;99.90
21031;DHT22;61072;47.808;7.636;2022-09-03T02:55:19;18.00;99.90
21031;DHT22;61072;47.808;7.636;2022-09-03T02:57:46;18.10;99.90
21031;DHT22;61072;47.808;7.636;2022-09-03T03:00:13;18.00;99.90
21031;DHT22;61072;47.808;7.636;2022-09-03T03:02:40;18.00;99.90
21031;DHT22;61072;47.808;7.636;2022-09-03T03:05:12;18.00;99.90
21031;DHT22;61072;47.808;7.636;2022-09-03T03:07:42;17.90;99.90
21031;DHT22;61072;47.808;7.636;2022-09-03T03:10:09;18.00;99.90
21031;DHT22;61072;47.808;7.636;2022-09-03T03:12:36;18.00;99.90
21031;DHT22;61072;47.808;7.636;2022-09-03T03:15:03;18.00;99.90
21031;DHT22;61072;47.808;7.636;2022-09-03T03:17:30;18.00;99.90
21031;DHT22;61072;47.808;7.636;2022-09-03T03:19:57;18.00;99.90
21031;DHT22;61072;47.808;7.636;2022-09-03T03:22:23;18.00;99.90
21031;DHT22;61072;47.808;7.636;2022-09-03T03:24:50;18.00;99.90
21031;DHT22;61072;47.808;7.636;2022-09-03T03:27:18;18.00;99.90
21031;DHT22;61072;47.808;7.636;2022-09-03T03:29:45;18.00;99.90
21031;DHT22;61072;47.808;7.636;2022-09-03T03:32:12;18.00;99.90
21031;DHT22;61072;47.808;7.636;2022-09-03T03:34:38;18.00;99.90
21031;DHT22;61072;47.808;7.636;2022-09-03T03:37:05;18.10;99.90
21031;DHT22;61072;47.808;7.636;2022-09-03T03:39:32;18.10;99.90
21031;DHT22;61072;47.808;7.636;2022-09-03T03:41:59;18.10;99.90
21031;DHT22;61072;47.808;7.636;2022-09-03T03:44:25;18.10;99.90
21031;DHT22;61072;47.808;7.636;2022-09-03T03:46:52;18.10;99.90
21031;DHT22;61072;47.808;7.636;2022-09-03T03:49:19;18.10;99.90
21031;DHT22;61072;47.808;7.636;2022-09-03T03:51:45;18.10;99.90
21031;DHT22;61072;47.808;7.636;2022-09-03T03:54:12;18.10;99.90
21031;DHT22;61072;47.808;7.636;2022-09-03T03:56:43;18.10;99.90
21031;DHT22;61072;47.808;7.636;2022-09-03T03:59:12;18.10;99.90
21031;DHT22;61072;47.808;7.636;2022-09-03T04:01:39;18.00;99.90
21031;DHT22;61072;47.808;7.636;2022-09-03T04:04:06;18.00;99.90
21031;DHT22;61072;47.808;7.636;2022-09-03T04:06:33;18.10;99.90
21031;DHT22;61072;47.808;7.636;2022-09-03T04:08:59;18.10;99.90
21031;DHT22;61072;47.808;7.636;2022-09-03T04:11:26;18.10;99.90
21031;DHT22;61072;47.808;7.636;2022-09-03T04:13:53;18.10;99.90
21031;DHT22;61072;47.808;7.636;2022-09-03T04:16:26;18.20;99.90
21031;DHT22;61072;47.808;7.636;2022-09-03T04:18:53;18.20;99.90
21031;DHT22;61072;47.808;7.636;2022-09-03T04:21:22;18.30;99.90
21031;DHT22;61072;47.808;7.636;2022-09-03T04:23:51;18.30;99.90
21031;DHT22;61072;47.808;7.636;2022-09-03T04:26:24;18.30;99.90
21031;DHT22;61072;47.808;7.636;2022-09-03T04:28:51;18.30;99.90
21031;DHT22;61072;47.808;7.636;2022-09-03T04:31:19;18.40;99.90
21031;DHT22;61072;47.808;7.636;2022-09-03T04:33:46;18.40;99.90
21031;DHT22;61072;47.808;7.636;2022-09-03T04:36:15;18.40;99.90
21031;DHT22;61072;47.808;7.636;2022-09-03T04:38:44;18.40;99.90
21031;DHT22;61072;47.808;7.636;2022-09-03T04:41:14;18.30;99.90
21031;DHT22;61072;47.808;7.636;2022-09-03T04:43:41;18.30;99.90
21031;DHT22;61072;47.808;7.636;2022-09-03T04:46:11;18.30;99.90
21031;DHT22;61072;47.808;7.636;2022-09-03T04:48:47;18.20;99.90
21031;DHT22;61072;47.808;7.636;2022-09-03T04:51:14;18.20;99.90
21031;DHT22;61072;47.808;7.636;2022-09-03T04:53:44;18.20;99.90
21031;DHT22;61072;47.808;7.636;2022-09-03T04:56:34;18.10;99.90
21031;DHT22;61072;47.808;7.636;2022-09-03T04:59:07;18.10;99.90
21031;DHT22;61072;47.808;7.636;2022-09-03T05:01:36;18.10;99.90
21031;DHT22;61072;47.808;7.636;2022-09-03T05:04:06;18.20;99.90
21031;DHT22;61072;47.808;7.636;2022-09-03T05:06:34;18.20;99.90
21031;DHT22;61072;47.808;7.636;2022-09-03T05:09:02;18.20;99.90
21031;DHT22;61072;47.808;7.636;2022-09-03T05:11:29;18.20;99.90
21031;DHT22;61072;47.808;7.636;2022-09-03T05:13:57;18.20;99.90
21031;DHT22;61072;47.808;7.636;2022-09-03T05:16:26;18.20;99.90
21031;DHT22;61072;47.808;7.636;2022-09-03T05:18:55;18.20;99.90
21031;DHT22;61072;47.808;7.636;2022-09-03T05:21:22;18.20;99.90
21031;DHT22;61072;47.808;7.636;2022-09-03T05:23:50;18.20;99.90
21031;DHT22;61072;47.808;7.636;2022-09-03T05:26:25;18.20;99.90
21031;DHT22;61072;47.808;7.636;2022-09-03T05:28:54;18.20;99.90
21031;DHT22;61072;47.808;7.636;2022-09-03T05:31:22;18.20;99.90
21031;DHT22;61072;47.808;7.636;2022-09-03T05:33:51;18.30;99.90
21031;DHT22;61072;47.808;7.636;2022-09-03T05:36:23;18.30;99.90
21031;DHT22;61072;47.808;7.636;2022-09-03T05:38:51;18.40;99.90
21031;DHT22;61072;47.808;7.636;2022-09-03T05:41:24;18.40;99.90
21031;DHT22;61072;47.808;7.636;2022-09-03T05:43:52;18.50;99.90
21031;DHT22;61072;47.808;7.636;2022-09-03T05:46:26;18.50;99.90
21031;DHT22;61072;47.808;7.636;2022-09-03T05:48:58;18.50;99.90
21031;DHT22;61072;47.808;7.636;2022-09-03T05:51:25;18.50;99.90
21031;DHT22;61072;47.808;7.636;2022-09-03T05:53:53;18.50;99.90
21031;DHT22;61072;47.808;7.636;2022-09-03T05:56:22;18.60;99.90
21031;DHT22;61072;47.808;7.636;2022-09-03T05:58:55;18.60;99.90
21031;DHT22;61072;47.808;7.636;2022-09-03T06:01:26;18.70;99.90
21031;DHT22;61072;47.808;7.636;2022-09-03T06:03:56;18.70;99.90
21031;DHT22;61072;47.808;7.636;2022-09-03T06:06:24;18.70;99.90
21031;DHT22;61072;47.808;7.636;2022-09-03T06:08:56;18.80;99.90
21031;DHT22;61072;47.808;7.636;2022-09-03T06:11:25;18.90;99.90
21031;DHT22;61072;47.808;7.636;2022-09-03T06:13:54;18.90;99.90
21031;DHT22;61072;47.808;7.636;2022-09-03T06:16:22;19.00;99.90
21031;DHT22;61072;47.808;7.636;2022-09-03T06:18:58;19.00;99.90
21031;DHT22;61072;47.808;7.636;2022-09-03T06:21:25;19.10;99.90
21031;DHT22;61072;47.808;7.636;2022-09-03T06:23:54;19.10;99.90
21031;DHT22;61072;47.808;7.636;2022-09-03T06:26:26;19.10;99.90
21031;DHT22;61072;47.808;7.636;2022-09-03T06:28:55;19.20;99.90
21031;DHT22;61072;47.808;7.636;2022-09-03T06:31:22;19.20;99.90
21031;DHT22;61072;47.808;7.636;2022-09-03T06:33:49;19.20;99.90
21031;DHT22;61072;47.808;7.636;2022-09-03T06:36:18;19.30;99.90
21031;DHT22;61072;47.808;7.636;2022-09-03T06:38:45;19.30;99.90
21031;DHT22;61072;47.808;7.636;2022-09-03T06:41:18;19.30;99.90
21031;DHT22;61072;47.808;7.636;2022-09-03T06:43:53;19.30;99.90
21031;DHT22;61072;47.808;7.636;2022-09-03T06:46:22;19.30;99.90
21031;DHT22;61072;47.808;7.636;2022-09-03T06:48:49;19.40;99.90
21031;DHT22;61072;47.808;7.636;2022-09-03T06:51:18;19.30;99.90
21031;DHT22;61072;47.808;7.636;2022-09-03T06:53:48;19.40;99.90
21031;DHT22;61072;47.808;7.636;2022-09-03T06:56:17;19.40;99.90
21031;DHT22;61072;47.808;7.636;2022-09-03T06:58:46;19.50;99.90
21031;DHT22;61072;47.808;7.636;2022-09-03T07:01:18;19.60;99.90
21031;DHT22;61072;47.808;7.636;2022-09-03T07:03:47;19.70;99.90
21031;DHT22;61072;47.808;7.636;2022-09-03T07:06:16;19.70;99.90
21031;DHT22;61072;47.808;7.636;2022-09-03T07:08:44;19.70;99.90
21031;DHT22;61072;47.808;7.636;2022-09-03T07:11:16;19.80;99.90
21031;DHT22;61072;47.808;7.636;2022-09-03T07:13:46;19.80;99.90
21031;DHT22;61072;47.808;7.636;2022-09-03T07:16:15;19.80;99.90
21031;DHT22;61072;47.808;7.636;2022-09-03T07:18:43;19.90;99.90
21031;DHT22;61072;47.808;7.636;2022-09-03T07:21:15;19.90;99.90
21031;DHT22;61072;47.808;7.636;2022-09-03T07:23:42;19.90;99.90
21031;DHT22;61072;47.808;7.636;2022-09-03T07:26:12;20.00;99.90
21031;DHT22;61072;47.808;7.636;2022-09-03T07:28:40;20.00;99.90
21031;DHT22;61072;47.808;7.636;2022-09-03T07:31:10;20.00;99.90
21031;DHT22;61072;47.808;7.636;2022-09-03T07:33:38;20.00;99.90
21031;DHT22;61072;47.808;7.636;2022-09-03T07:36:10;20.10;99.90
21031;DHT22;61072;47.808;7.636;2022-09-03T07:38:37;20.10;99.90
21031;DHT22;61072;47.808;7.636;2022-09-03T07:41:07;20.10;99.90
21031;DHT22;61072;47.808;7.636;2022-09-03T07:43:40;20.10;99.90
21031;DHT22;61072;47.808;7.636;2022-09-03T07:46:09;20.10;99.90
21031;DHT22;61072;47.808;7.636;2022-09-03T07:48:40;20.10;99.90
21031;DHT22;61072;47.808;7.636;2022-09-03T07:51:07;20.10;99.90
21031;DHT22;61072;47.808;7.636;2022-09-03T07:53:35;20.20;99.90
21031;DHT22;61072;47.808;7.636;2022-09-03T07:56:03;20.30;99.90
21031;DHT22;61072;47.808;7.636;2022-09-03T07:58:32;20.40;99.90
21031;DHT22;61072;47.808;7.636;2022-09-03T08:01:13;20.50;99.90
21031;DHT22;61072;47.808;7.636;2022-09-03T08:03:47;20.50;99.90
21031;DHT22;61072;47.808;7.636;2022-09-03T08:06:15;20.60;99.90
21031;DHT22;61072;47.808;7.636;2022-09-03T08:08:42;20.70;99.90
21031;DHT22;61072;47.808;7.636;2022-09-03T08:11:14;20.80;99.90
21031;DHT22;61072;47.808;7.636;2022-09-03T08:13:44;20.90;99.90
21031;DHT22;61072;47.808;7.636;2022-09-03T08:16:12;21.00;99.90
21031;DHT22;61072;47.808;7.636;2022-09-03T08:18:39;21.00;99.90
21031;DHT22;61072;47.808;7.636;2022-09-03T08:21:14;21.10;99.90
21031;DHT22;61072;47.808;7.636;2022-09-03T08:23:44;21.10;99.90
21031;DHT22;61072;47.808;7.636;2022-09-03T08:26:12;21.10;99.90
21031;DHT22;61072;47.808;7.636;2022-09-03T08:28:40;21.00;99.90
21031;DHT22;61072;47.808;7.636;2022-09-03T08:31:13;21.00;99.90
21031;DHT22;61072;47.808;7.636;2022-09-03T08:33:42;21.00;99.90
21031;DHT22;61072;47.808;7.636;2022-09-03T08:36:14;21.00;99.90
21031;DHT22;61072;47.808;7.636;2022-09-03T08:38:42;21.10;99.90
21031;DHT22;61072;47.808;7.636;2022-09-03T08:41:24;21.10;99.90
21031;DHT22;61072;47.808;7.636;2022-09-03T08:47:09;21.20;99.90
21031;DHT22;61072;47.808;7.636;2022-09-03T08:52:35;21.20;99.90
21031;DHT22;61072;47.808;7.636;2022-09-03T08:57:41;21.00;99.90
21031;DHT22;61072;47.808;7.636;2022-09-03T09:00:09;20.90;99.90
21031;DHT22;61072;47.808;7.636;2022-09-03T09:05:57;20.70;99.90
21031;DHT22;61072;47.808;7.636;2022-09-03T09:08:37;20.60;99.90
21031;DHT22;61072;47.808;7.636;2022-09-03T09:11:21;20.50;99.90
21031;DHT22;61072;47.808;7.636;2022-09-03T09:14:09;20.40;99.90
21031;DHT22;61072;47.808;7.636;2022-09-03T09:22:33;20.00;99.90
21031;DHT22;61072;47.808;7.636;2022-09-03T09:25:05;19.70;99.90
21031;DHT22;61072;47.808;7.636;2022-09-03T09:27:34;19.50;99.90
21031;DHT22;61072;47.808;7.636;2022-09-03T09:30:04;19.40;99.90
21031;DHT22;61072;47.808;7.636;2022-09-03T09:32:31;19.30;99.90
21031;DHT22;61072;47.808;7.636;2022-09-03T09:35:00;19.20;99.90
21031;DHT22;61072;47.808;7.636;2022-09-03T09:37:27;19.20;99.90
21031;DHT22;61072;47.808;7.636;2022-09-03T09:39:56;19.10;99.90
21031;DHT22;61072;47.808;7.636;2022-09-03T09:42:24;19.10;99.90
21031;DHT22;61072;47.808;7.636;2022-09-03T09:44:51;19.00;99.90
21031;DHT22;61072;47.808;7.636;2022-09-03T09:47:30;19.00;99.90
21031;DHT22;61072;47.808;7.636;2022-09-03T09:50:01;18.90;99.90
21031;DHT22;61072;47.808;7.636;2022-09-03T09:52:29;18.90;99.90
21031;DHT22;61072;47.808;7.636;2022-09-03T09:55:14;18.90;99.90
21031;DHT22;61072;47.808;7.636;2022-09-03T09:57:41;18.80;99.90
21031;DHT22;61072;47.808;7.636;2022-09-03T10:00:14;18.80;99.90
21031;DHT22;61072;47.808;7.636;2022-09-03T10:02:49;18.70;99.90
21031;DHT22;61072;47.808;7.636;2022-09-03T10:05:27;18.60;99.90
21031;DHT22;61072;47.808;7.636;2022-09-03T10:08:01;18.60;99.90
21031;DHT22;61072;47.808;7.636;2022-09-03T10:10:32;18.50;99.90
21031;DHT22;61072;47.808;7.636;2022-09-03T10:13:11;18.50;99.90
21031;DHT22;61072;47.808;7.636;2022-09-03T10:15:49;18.50;99.90
21031;DHT22;61072;47.808;7.636;2022-09-03T10:18:43;18.40;99.90
21031;DHT22;61072;47.808;7.636;2022-09-03T10:21:27;18.50;99.90
21031;DHT22;61072;47.808;7.636;2022-09-03T10:24:28;18.50;99.90
21031;DHT22;61072;47.808;7.636;2022-09-03T10:26:57;18.50;99.90
21031;DHT22;61072;47.808;7.636;2022-09-03T10:29:24;18.50;99.90
21031;DHT22;61072;47.808;7.636;2022-09-03T10:32:02;18.60;99.90
21031;DHT22;61072;47.808;7.636;2022-09-03T10:59:03;19.50;99.90
21031;DHT22;61072;47.808;7.636;2022-09-03T11:06:43;20.10;99.90
21031;DHT22;61072;47.808;7.636;2022-09-03T11:09:18;20.20;99.90
21031;DHT22;61072;47.808;7.636;2022-09-03T11:11:59;20.30;99.90
21031;DHT22;61072;47.808;7.636;2022-09-03T11:14:33;20.40;99.90
21031;DHT22;61072;47.808;7.636;2022-09-03T11:17:36;20.50;99.90
21031;DHT22;61072;47.808;7.636;2022-09-03T11:20:19;20.60;99.90
21031;DHT22;61072;47.808;7.636;2022-09-03T11:22:50;20.60;99.90
21031;DHT22;61072;47.808;7.636;2022-09-03T11:25:20;20.60;99.90
21031;DHT22;61072;47.808;7.636;2022-09-03T11:33:26;20.40;99.90
21031;DHT22;61072;47.808;7.636;2022-09-03T11:35:58;20.40;99.90
21031;DHT22;61072;47.808;7.636;2022-09-03T11:38:29;20.40;99.90
21031;DHT22;61072;47.808;7.636;2022-09-03T11:41:13;20.40;99.90
21031;DHT22;61072;47.808;7.636;2022-09-03T11:43:44;20.30;99.90
21031;DHT22;61072;47.808;7.636;2022-09-03T11:48:43;20.20;99.90
21031;DHT22;61072;47.808;7.636;2022-09-03T11:51:20;20.10;99.90
21031;DHT22;61072;47.808;7.636;2022-09-03T11:56:21;20.10;99.90
21031;DHT22;61072;47.808;7.636;2022-09-03T11:59:17;20.10;99.90
21031;DHT22;61072;47.808;7.636;2022-09-03T12:04:23;20.10;99.90
21031;DHT22;61072;47.808;7.636;2022-09-03T12:18:17;20.50;99.90
21031;DHT22;61072;47.808;7.636;2022-09-03T12:23:33;20.80;99.90
21031;DHT22;61072;47.808;7.636;2022-09-03T12:26:09;20.90;99.90
21031;DHT22;61072;47.808;7.636;2022-09-03T12:28:43;21.00;99.90
21031;DHT22;61072;47.808;7.636;2022-09-03T12:31:28;21.10;99.90
21031;DHT22;61072;47.808;7.636;2022-09-03T12:33:59;21.30;99.90
21031;DHT22;61072;47.808;7.636;2022-09-03T12:36:36;21.30;99.90
21031;DHT22;61072;47.808;7.636;2022-09-03T12:39:21;21.40;99.90
21031;DHT22;61072;47.808;7.636;2022-09-03T12:42:14;21.50;99.90
21031;DHT22;61072;47.808;7.636;2022-09-03T12:44:44;21.60;99.90
21031;DHT22;61072;47.808;7.636;2022-09-03T12:50:09;21.80;99.90
21031;DHT22;61072;47.808;7.636;2022-09-03T12:55:37;22.00;99.90
21031;DHT22;61072;47.808;7.636;2022-09-03T13:01:13;22.10;99.90
21031;DHT22;61072;47.808;7.636;2022-09-03T13:03:52;22.10;99.90
21031;DHT22;61072;47.808;7.636;2022-09-03T13:06:27;22.10;99.90
21031;DHT22;61072;47.808;7.636;2022-09-03T13:09:03;22.10;99.90
21031;DHT22;61072;47.808;7.636;2022-09-03T13:11:33;22.00;99.90
21031;DHT22;61072;47.808;7.636;2022-09-03T13:19:49;21.90;99.90
21031;DHT22;61072;47.808;7.636;2022-09-03T13:22:41;22.00;99.90
21031;DHT22;61072;47.808;7.636;2022-09-03T13:28:24;22.10;99.90
21031;DHT22;61072;47.808;7.636;2022-09-03T13:31:08;22.20;99.90
21031;DHT22;61072;47.808;7.636;2022-09-03T13:33:44;22.20;99.90
21031;DHT22;61072;47.808;7.636;2022-09-03T13:36:20;22.30;99.90
21031;DHT22;61072;47.808;7.636;2022-09-03T13:38:56;22.30;99.90
21031;DHT22;61072;47.808;7.636;2022-09-03T13:44:11;22.40;99.90
21031;DHT22;61072;47.808;7.636;2022-09-03T13:46:55;22.40;99.90
21031;DHT22;61072;47.808;7.636;2022-09-03T13:49:53;22.50;99.90
21031;DHT22;61072;47.808;7.636;2022-09-03T13:53:17;22.50;99.90
21031;DHT22;61072;47.808;7.636;2022-09-03T13:56:05;22.60;99.90
21031;DHT22;61072;47.808;7.636;2022-09-03T13:58:55;22.60;99.90
21031;DHT22;61072;47.808;7.636;2022-09-03T14:01:44;22.70;99.90
21031;DHT22;61072;47.808;7.636;2022-09-03T14:04:26;22.70;99.90
21031;DHT22;61072;47.808;7.636;2022-09-03T14:07:02;22.80;99.90
21031;DHT22;61072;47.808;7.636;2022-09-03T14:10:03;22.80;99.90
21031;DHT22;61072;47.808;7.636;2022-09-03T14:12:46;22.80;99.90
21031;DHT22;61072;47.808;7.636;2022-09-03T14:15:29;22.80;99.90
21031;DHT22;61072;47.808;7.636;2022-09-03T14:18:31;22.80;99.90
21031;DHT22;61072;47.808;7.636;2022-09-03T14:21:07;22.90;99.90
21031;DHT22;61072;47.808;7.636;2022-09-03T14:24:14;22.90;99.90
21031;DHT22;61072;47.808;7.636;2022-09-03T14:27:00;23.00;99.90
21031;DHT22;61072;47.808;7.636;2022-09-03T14:29:31;23.10;99.90
21031;DHT22;61072;47.808;7.636;2022-09-03T14:32:05;23.20;99.90
21031;DHT22;61072;47.808;7.636;2022-09-03T14:37:47;23.20;99.90
21031;DHT22;61072;47.808;7.636;2022-09-03T14:40:28;23.30;99.90
21031;DHT22;61072;47.808;7.636;2022-09-03T14:43:26;23.20;99.90
21031;DHT22;61072;47.808;7.636;2022-09-03T14:46:18;23.20;99.90
21031;DHT22;61072;47.808;7.636;2022-09-03T14:51:53;23.20;99.90
21031;DHT22;61072;47.808;7.636;2022-09-03T14:54:58;23.10;99.90
21031;DHT22;61072;47.808;7.636;2022-09-03T14:58:32;23.10;99.90
21031;DHT22;61072;47.808;7.636;2022-09-03T15:09:37;22.90;99.90
21031;DHT22;61072;47.808;7.636;2022-09-03T15:12:17;22.80;99.90
21031;DHT22;61072;47.808;7.636;2022-09-03T15:14:52;22.80;99.90
21031;DHT22;61072;47.808;7.636;2022-09-03T15:20:45;22.70;99.90
21031;DHT22;61072;47.808;7.636;2022-09-03T15:23:29;22.70;99.90
21031;DHT22;61072;47.808;7.636;2022-09-03T15:29:25;22.60;99.90
21031;DHT22;61072;47.808;7.636;2022-09-03T15:37:44;22.60;99.90
21031;DHT22;61072;47.808;7.636;2022-09-03T15:40:26;22.60;99.90
21031;DHT22;61072;47.808;7.636;2022-09-03T15:42:59;22.50;99.90
21031;DHT22;61072;47.808;7.636;2022-09-03T15:45:39;22.50;99.90
21031;DHT22;61072;47.808;7.636;2022-09-03T15:48:25;22.50;99.90
21031;DHT22;61072;47.808;7.636;2022-09-03T15:51:05;22.50;99.90
21031;DHT22;61072;47.808;7.636;2022-09-03T15:57:06;22.50;99.90
21031;DHT22;61072;47.808;7.636;2022-09-03T15:59:42;22.50;99.90
21031;DHT22;61072;47.808;7.636;2022-09-03T16:02:39;22.50;99.90
21031;DHT22;61072;47.808;7.636;2022-09-03T16:08:28;22.50;99.90
21031;DHT22;61072;47.808;7.636;2022-09-03T16:10:42;22.50;99.90
21031;DHT22;61072;47.808;7.636;2022-09-03T16:13:39;22.40;99.90
21031;DHT22;61072;47.808;7.636;2022-09-03T16:16:25;22.30;99.90
21031;DHT22;61072;47.808;7.636;2022-09-03T16:19:11;22.30;99.90
21031;DHT22;61072;47.808;7.636;2022-09-03T16:21:45;22.20;99.90
21031;DHT22;61072;47.808;7.636;2022-09-03T16:30:00;22.10;99.90
21031;DHT22;61072;47.808;7.636;2022-09-03T16:33:01;22.00;99.90
21031;DHT22;61072;47.808;7.636;2022-09-03T16:36:16;22.00;99.90
21031;DHT22;61072;47.808;7.636;2022-09-03T16:42:06;21.90;99.90
21031;DHT22;61072;47.808;7.636;2022-09-03T16:47:48;21.80;99.90
21031;DHT22;61072;47.808;7.636;2022-09-03T16:53:25;21.80;99.90
21031;DHT22;61072;47.808;7.636;2022-09-03T17:04:45;21.60;99.90
21031;DHT22;61072;47.808;7.636;2022-09-03T17:18:20;21.30;99.90
21031;DHT22;61072;47.808;7.636;2022-09-03T17:23:53;21.20;99.90
21031;DHT22;61072;47.808;7.636;2022-09-03T17:32:10;21.00;99.90
21031;DHT22;61072;47.808;7.636;2022-09-03T17:40:56;20.80;99.90
21031;DHT22;61072;47.808;7.636;2022-09-03T17:46:22;20.70;99.90
21031;DHT22;61072;47.808;7.636;2022-09-03T17:48:54;20.70;99.90
21031;DHT22;61072;47.808;7.636;2022-09-03T17:51:44;20.60;99.90
21031;DHT22;61072;47.808;7.636;2022-09-03T17:54:24;20.60;99.90
21031;DHT22;61072;47.808;7.636;2022-09-03T17:57:04;20.60;99.90
21031;DHT22;61072;47.808;7.636;2022-09-03T18:00:05;20.50;99.90
21031;DHT22;61072;47.808;7.636;2022-09-03T18:02:44;20.40;99.90
21031;DHT22;61072;47.808;7.636;2022-09-03T18:05:23;20.30;99.90
21031;DHT22;61072;47.808;7.636;2022-09-03T18:08:04;20.30;99.90
21031;DHT22;61072;47.808;7.636;2022-09-03T18:13:45;20.20;99.90
21031;DHT22;61072;47.808;7.636;2022-09-03T18:16:27;20.20;99.90
21031;DHT22;61072;47.808;7.636;2022-09-03T18:19:02;20.20;99.90
21031;DHT22;61072;47.808;7.636;2022-09-03T18:21:36;20.10;99.90
21031;DHT22;61072;47.808;7.636;2022-09-03T18:24:40;20.10;99.90
21031;DHT22;61072;47.808;7.636;2022-09-03T18:30:13;20.00;99.90
21031;DHT22;61072;47.808;7.636;2022-09-03T18:32:59;20.00;99.90
21031;DHT22;61072;47.808;7.636;2022-09-03T18:35:46;19.90;99.90
21031;DHT22;61072;47.808;7.636;2022-09-03T18:38:37;19.80;99.90
21031;DHT22;61072;47.808;7.636;2022-09-03T18:51:44;19.70;99.90
21031;DHT22;61072;47.808;7.636;2022-09-03T18:57:59;19.60;99.90
21031;DHT22;61072;47.808;7.636;2022-09-03T19:01:25;19.70;99.90
21031;DHT22;61072;47.808;7.636;2022-09-03T19:10:20;19.70;99.90
21031;DHT22;61072;47.808;7.636;2022-09-03T19:13:33;19.70;99.90
21031;DHT22;61072;47.808;7.636;2022-09-03T19:16:42;19.70;99.90
21031;DHT22;61072;47.808;7.636;2022-09-03T19:19:53;19.60;99.90
21031;DHT22;61072;47.808;7.636;2022-09-03T19:22:44;19.70;99.90
21031;DHT22;61072;47.808;7.636;2022-09-03T19:25:32;19.60;99.90
21031;DHT22;61072;47.808;7.636;2022-09-03T19:28:29;19.60;99.90
21031;DHT22;61072;47.808;7.636;2022-09-03T19:43:47;19.30;99.90
21031;DHT22;61072;47.808;7.636;2022-09-03T19:46:50;19.20;99.90
21031;DHT22;61072;47.808;7.636;2022-09-03T19:53:06;19.10;99.90
21031;DHT22;61072;47.808;7.636;2022-09-03T19:55:55;19.10;99.90
21031;DHT22;61072;47.808;7.636;2022-09-03T19:58:55;19.00;99.90
21031;DHT22;61072;47.808;7.636;2022-09-03T20:01:41;19.00;99.90
21031;DHT22;61072;47.808;7.636;2022-09-03T20:04:57;19.00;99.90
21031;DHT22;61072;47.808;7.636;2022-09-03T20:07:53;18.90;99.90
21031;DHT22;61072;47.808;7.636;2022-09-03T20:10:41;18.90;99.90
21031;DHT22;61072;47.808;7.636;2022-09-03T20:13:18;18.90;99.90
21031;DHT22;61072;47.808;7.636;2022-09-03T20:16:23;18.80;99.90
21031;DHT22;61072;47.808;7.636;2022-09-03T20:19:00;18.70;99.90
21031;DHT22;61072;47.808;7.636;2022-09-03T20:21:46;18.60;99.90
21031;DHT22;61072;47.808;7.636;2022-09-03T20:24:42;18.60;99.90
21031;DHT22;61072;47.808;7.636;2022-09-03T20:27:16;18.50;99.90
21031;DHT22;61072;47.808;7.636;2022-09-03T20:49:15;18.40;99.90
21031;DHT22;61072;47.808;7.636;2022-09-03T20:51:49;18.40;99.90
21031;DHT22;61072;47.808;7.636;2022-09-03T20:54:28;18.40;99.90
21031;DHT22;61072;47.808;7.636;2022-09-03T20:57:17;18.40;99.90
21031;DHT22;61072;47.808;7.636;2022-09-03T21:05:53;18.40;99.90
21031;DHT22;61072;47.808;7.636;2022-09-03T21:08:41;18.40;99.90
21031;DHT22;61072;47.808;7.636;2022-09-03T21:11:34;18.30;99.90
21031;DHT22;61072;47.808;7.636;2022-09-03T21:22:51;18.30;99.90